Time;durP1;ratioP1;P1;durP2;ratioP2;P2;SDS_P1;SDS_P2;PMS_P1;PMS_P2;Temp;Humidity;BMP_temperature;BMP_pressure;BME280_temperature;BME280_humidity;BME280_pressure;Samples;Min_cycle;Max_cycle;Signal;HPM_P1;HPM_P2
2023/08/27 00:00:19;;;;;;;17.10;13.13;;;13.30;99.90;;;;;;4985353;28;20510;-73
2023/08/27 00:02:52;;;;;;;17.85;12.93;;;13.40;99.90;;;;;;4953512;28;20061;-72
2023/08/27 00:05:18;;;;;;;16.58;12.57;;;13.30;99.90;;;;;;4979629;28;20108;-73
2023/08/27 00:07:44;;;;;;;16.95;13.63;;;13.30;99.90;;;;;;4956799;28;20052;-72
2023/08/27 00:10:11;;;;;;;16.70;13.50;;;13.30;99.90;;;;;;5003931;28;20061;-72
2023/08/27 00:12:37;;;;;;;17.42;12.65;;;13.30;99.90;;;;;;4962454;28;20050;-72
2023/08/27 00:15:04;;;;;;;15.70;12.38;;;13.30;99.90;;;;;;4978916;28;20515;-74
2023/08/27 00:17:31;;;;;;;15.13;11.85;;;13.20;99.90;;;;;;4961826;28;20758;-72
2023/08/27 00:19:58;;;;;;;15.50;11.82;;;13.20;99.90;;;;;;5009172;28;20062;-72
2023/08/27 00:22:24;;;;;;;16.67;12.20;;;13.20;99.90;;;;;;5002310;28;20056;-72
2023/08/27 00:24:50;;;;;;;18.80;12.02;;;13.10;99.90;;;;;;5015762;28;20057;-72
2023/08/27 00:27:16;;;;;;;15.65;11.98;;;13.10;99.90;;;;;;4994475;28;20033;-72
2023/08/27 00:29:42;;;;;;;16.35;11.13;;;13.10;99.90;;;;;;5005568;28;20064;-77
2023/08/27 00:32:08;;;;;;;12.98;10.52;;;13.00;99.90;;;;;;4962653;28;35343;-73
2023/08/27 00:34:35;;;;;;;16.08;12.30;;;13.00;99.90;;;;;;4975466;28;20077;-72
2023/08/27 00:37:01;;;;;;;15.60;11.70;;;12.90;99.90;;;;;;4945401;28;20484;-72
2023/08/27 00:39:30;;;;;;;17.05;11.82;;;12.90;99.90;;;;;;4979517;28;20512;-72
2023/08/27 00:41:57;;;;;;;18.00;11.40;;;12.90;99.90;;;;;;4943716;28;20423;-72
2023/08/27 00:44:23;;;;;;;15.27;12.02;;;12.90;99.90;;;;;;4949411;28;20065;-72
2023/08/27 00:46:50;;;;;;;18.60;11.15;;;12.90;99.90;;;;;;4941987;28;20072;-72
2023/08/27 00:49:16;;;;;;;15.02;11.60;;;12.90;99.90;;;;;;4983621;28;20057;-71
2023/08/27 00:51:44;;;;;;;17.70;12.52;;;12.80;99.90;;;;;;4994610;28;20046;-71
2023/08/27 00:54:11;;;;;;;19.98;12.63;;;12.90;99.90;;;;;;4918221;28;20050;-71
2023/08/27 00:56:44;;;;;;;22.90;12.45;;;12.80;99.90;;;;;;4983828;28;20054;-71
2023/08/27 00:59:11;;;;;;;17.75;12.50;;;12.80;99.90;;;;;;4946814;28;20050;-71
2023/08/27 01:01:39;;;;;;;17.42;13.70;;;12.80;99.90;;;;;;4982364;28;20238;-72
2023/08/27 01:04:05;;;;;;;17.65;12.15;;;12.80;99.90;;;;;;4926085;28;20403;-72
2023/08/27 01:06:32;;;;;;;20.80;14.27;;;12.90;99.90;;;;;;4980844;28;20057;-72
2023/08/27 01:09:03;;;;;;;16.48;12.23;;;12.90;99.90;;;;;;4942339;28;20058;-72
2023/08/27 01:11:57;;;;;;;19.15;13.95;;;12.90;99.90;;;;;;4980603;28;20065;-73
2023/08/27 01:14:24;;;;;;;18.25;13.80;;;12.90;99.90;;;;;;4944579;28;20045;-72
2023/08/27 01:16:51;;;;;;;17.30;13.73;;;13.00;99.90;;;;;;4945835;28;20062;-71
2023/08/27 01:19:18;;;;;;;16.77;12.82;;;13.00;99.90;;;;;;4982110;28;20062;-71
2023/08/27 01:21:45;;;;;;;19.75;13.02;;;13.10;99.90;;;;;;4967296;28;20053;-72
2023/08/27 01:24:11;;;;;;;17.33;13.25;;;13.10;99.90;;;;;;4919759;28;20061;-71
2023/08/27 01:26:47;;;;;;;19.42;13.48;;;13.10;99.90;;;;;;4982658;28;20058;-71
2023/08/27 01:29:19;;;;;;;21.48;14.25;;;13.20;99.90;;;;;;4931568;28;20050;-71
2023/08/27 01:32:00;;;;;;;20.10;13.93;;;13.20;99.90;;;;;;4980352;28;20054;-70
2023/08/27 01:34:29;;;;;;;17.30;13.60;;;13.20;99.90;;;;;;4991942;28;20065;-71
2023/08/27 01:36:56;;;;;;;16.40;13.05;;;13.30;99.90;;;;;;4968195;28;20104;-72
2023/08/27 01:39:22;;;;;;;16.00;11.30;;;13.30;99.90;;;;;;5016537;28;20061;-72
2023/08/27 01:41:48;;;;;;;16.15;11.95;;;13.30;99.90;;;;;;4967244;28;20053;-72
2023/08/27 01:44:14;;;;;;;17.08;12.23;;;13.20;99.90;;;;;;5005761;28;20069;-72
2023/08/27 01:46:40;;;;;;;15.05;11.93;;;13.20;99.90;;;;;;5004589;28;20052;-72
2023/08/27 01:49:06;;;;;;;16.67;12.20;;;13.20;99.90;;;;;;4963393;28;20037;-71
2023/08/27 01:51:33;;;;;;;15.52;11.30;;;13.20;99.90;;;;;;5002312;28;20056;-72
2023/08/27 01:53:59;;;;;;;17.08;11.75;;;13.20;99.90;;;;;;4929878;28;222999;-72
2023/08/27 01:56:25;;;;;;;18.67;11.50;;;13.10;99.90;;;;;;5002779;28;20050;-73
2023/08/27 01:58:51;;;;;;;18.45;11.73;;;13.10;99.90;;;;;;4974695;28;20068;-73
2023/08/27 02:01:17;;;;;;;16.08;11.82;;;13.00;99.90;;;;;;5004884;28;20420;-72
2023/08/27 02:03:43;;;;;;;14.82;10.98;;;13.00;99.90;;;;;;4974100;28;20525;-72
2023/08/27 02:06:09;;;;;;;16.40;11.77;;;12.90;99.90;;;;;;4998146;28;20062;-72
2023/08/27 02:08:35;;;;;;;18.50;11.70;;;12.90;99.90;;;;;;4966253;28;20045;-71
2023/08/27 02:11:02;;;;;;;17.40;11.18;;;12.90;99.90;;;;;;5005705;28;20048;-72
2023/08/27 02:13:28;;;;;;;20.75;12.65;;;12.80;99.90;;;;;;4979078;28;20072;-72
2023/08/27 02:15:54;;;;;;;15.65;11.20;;;12.80;99.90;;;;;;5003844;28;20519;-72
2023/08/27 02:18:20;;;;;;;15.18;11.82;;;12.80;99.90;;;;;;4956089;28;20050;-72
2023/08/27 02:20:46;;;;;;;16.40;11.30;;;12.80;99.90;;;;;;4997988;28;20046;-72
2023/08/27 02:23:12;;;;;;;15.63;12.10;;;12.80;99.90;;;;;;4975445;28;20048;-72
2023/08/27 02:25:38;;;;;;;18.83;12.63;;;12.80;99.90;;;;;;4997470;28;20283;-72
2023/08/27 02:28:04;;;;;;;21.00;12.80;;;12.80;99.90;;;;;;4962126;28;20060;-72
2023/08/27 02:30:30;;;;;;;13.70;10.43;;;12.80;99.90;;;;;;4998377;28;20084;-72
2023/08/27 02:32:56;;;;;;;16.10;12.23;;;12.80;99.90;;;;;;4970814;28;20429;-72
2023/08/27 02:35:23;;;;;;;17.92;12.30;;;12.80;99.90;;;;;;5006087;28;20052;-71
2023/08/27 02:37:49;;;;;;;16.45;11.30;;;12.70;99.90;;;;;;4956137;28;20045;-72
2023/08/27 02:40:17;;;;;;;17.00;11.73;;;12.70;99.90;;;;;;5001677;28;20054;-72
2023/08/27 02:42:43;;;;;;;14.45;11.55;;;12.70;99.90;;;;;;4970550;28;20064;-72
2023/08/27 02:45:10;;;;;;;17.75;13.63;;;12.70;99.90;;;;;;5008569;28;20068;-72
2023/08/27 02:47:36;;;;;;;19.63;12.52;;;12.70;99.90;;;;;;4963175;28;20434;-72
2023/08/27 02:50:03;;;;;;;17.63;13.35;;;12.70;99.90;;;;;;4989139;28;20053;-72
2023/08/27 02:52:29;;;;;;;18.10;13.27;;;12.70;99.90;;;;;;4920892;28;226611;-71
2023/08/27 02:54:55;;;;;;;16.90;12.68;;;12.70;99.90;;;;;;4991036;28;20062;-72
2023/08/27 02:57:21;;;;;;;17.83;13.07;;;12.70;99.90;;;;;;4953833;28;20061;-72
2023/08/27 02:59:47;;;;;;;17.05;13.38;;;12.70;99.90;;;;;;5010414;28;20367;-71
2023/08/27 03:02:13;;;;;;;22.05;14.80;;;12.80;99.90;;;;;;4944419;28;20046;-71
2023/08/27 03:04:39;;;;;;;18.45;12.88;;;12.80;99.90;;;;;;5012591;28;20056;-71
2023/08/27 03:07:05;;;;;;;17.77;13.45;;;12.80;99.90;;;;;;4968022;28;20086;-71
2023/08/27 03:09:32;;;;;;;18.45;13.90;;;12.80;99.90;;;;;;4992127;28;20057;-71
2023/08/27 03:11:58;;;;;;;19.02;13.70;;;12.80;99.90;;;;;;4965516;28;20062;-72
2023/08/27 03:14:24;;;;;;;19.90;14.57;;;12.80;99.90;;;;;;4981333;28;20316;-72
2023/08/27 03:16:50;;;;;;;19.77;13.70;;;12.80;99.90;;;;;;4963831;28;20061;-72
2023/08/27 03:19:16;;;;;;;15.65;12.63;;;12.90;99.90;;;;;;4995018;28;20053;-72
2023/08/27 03:21:42;;;;;;;18.52;13.25;;;12.90;99.90;;;;;;4996123;28;20057;-72
2023/08/27 03:24:08;;;;;;;16.02;12.45;;;12.90;99.90;;;;;;4988600;28;20062;-72
2023/08/27 03:26:34;;;;;;;16.00;12.98;;;12.90;99.90;;;;;;5000715;28;20061;-72
2023/08/27 03:29:00;;;;;;;16.45;12.60;;;13.00;99.90;;;;;;4974763;28;20054;-72
2023/08/27 03:31:26;;;;;;;18.00;12.70;;;13.00;99.90;;;;;;5004451;28;20495;-72
2023/08/27 03:33:52;;;;;;;16.92;12.60;;;13.00;99.90;;;;;;4980149;28;20053;-72
2023/08/27 03:36:19;;;;;;;16.77;12.20;;;13.00;99.90;;;;;;5005391;28;20432;-71
2023/08/27 03:38:45;;;;;;;17.13;12.55;;;13.10;99.90;;;;;;4976991;28;20081;-72
2023/08/27 03:41:11;;;;;;;17.13;12.50;;;13.10;99.90;;;;;;5002727;28;20487;-71
2023/08/27 03:43:37;;;;;;;15.52;12.20;;;13.10;99.90;;;;;;4938609;28;20042;-72
2023/08/27 03:46:03;;;;;;;17.75;12.15;;;13.20;99.90;;;;;;4985789;28;20057;-72
2023/08/27 03:48:29;;;;;;;17.10;11.50;;;13.20;99.90;;;;;;4955831;28;20047;-72
2023/08/27 03:50:55;;;;;;;17.27;12.80;;;13.20;99.90;;;;;;5009109;28;20126;-72
2023/08/27 03:53:21;;;;;;;14.98;12.02;;;13.20;99.90;;;;;;4948079;28;102779;-72
2023/08/27 03:55:47;;;;;;;17.00;11.35;;;13.30;99.90;;;;;;5005240;28;20049;-72
2023/08/27 03:58:14;;;;;;;16.95;11.70;;;13.30;99.90;;;;;;4972647;28;20049;-72
2023/08/27 04:00:40;;;;;;;17.15;12.32;;;13.30;99.90;;;;;;5007702;28;20450;-72
2023/08/27 04:03:07;;;;;;;15.48;11.15;;;13.30;99.90;;;;;;4975399;28;20478;-72
2023/08/27 04:05:33;;;;;;;16.60;11.30;;;13.30;99.90;;;;;;5005551;28;20046;-72
2023/08/27 04:07:59;;;;;;;16.13;11.65;;;13.30;99.90;;;;;;4971949;28;20049;-72
2023/08/27 04:10:25;;;;;;;14.35;11.43;;;13.20;99.90;;;;;;5013378;28;20407;-72
2023/08/27 04:12:51;;;;;;;16.92;10.65;;;13.20;99.90;;;;;;4968112;28;20053;-72
2023/08/27 04:15:18;;;;;;;16.10;11.00;;;13.20;99.90;;;;;;5005901;28;20657;-72
2023/08/27 04:17:44;;;;;;;13.65;10.25;;;13.20;99.90;;;;;;4969610;28;20058;-72
2023/08/27 04:20:10;;;;;;;14.32;10.85;;;13.10;99.90;;;;;;5004355;28;20503;-72
2023/08/27 04:22:36;;;;;;;15.32;10.43;;;13.10;99.90;;;;;;4960156;28;20173;-72
2023/08/27 04:25:02;;;;;;;14.45;10.85;;;13.00;99.90;;;;;;4999171;28;20050;-72
2023/08/27 04:27:29;;;;;;;13.40;10.30;;;13.00;99.90;;;;;;4969132;28;20057;-72
2023/08/27 04:29:55;;;;;;;13.80;10.80;;;13.00;99.90;;;;;;4991646;28;20061;-72
2023/08/27 04:32:21;;;;;;;13.27;10.10;;;13.00;99.90;;;;;;4965256;28;20132;-72
2023/08/27 04:34:47;;;;;;;16.05;10.70;;;12.90;99.90;;;;;;5012737;28;20049;-71
2023/08/27 04:37:13;;;;;;;17.23;11.05;;;12.90;99.90;;;;;;4972820;28;20041;-72
2023/08/27 04:39:39;;;;;;;15.80;10.57;;;12.90;99.90;;;;;;4997413;28;20057;-72
2023/08/27 04:42:06;;;;;;;15.07;11.05;;;12.90;99.90;;;;;;4967348;28;20608;-72
2023/08/27 04:44:32;;;;;;;14.65;11.05;;;12.90;99.90;;;;;;5010160;28;20049;-72
2023/08/27 04:47:00;;;;;;;14.70;10.57;;;12.90;99.90;;;;;;4965773;28;20061;-72
2023/08/27 04:49:26;;;;;;;16.90;10.95;;;12.90;99.90;;;;;;5017470;28;20049;-73
2023/08/27 04:51:52;;;;;;;16.42;10.27;;;12.90;99.90;;;;;;4955600;28;52896;-71
2023/08/27 04:54:18;;;;;;;15.95;10.57;;;12.90;99.90;;;;;;5003078;28;20053;-71
2023/08/27 04:56:44;;;;;;;14.13;9.93;;;12.90;99.90;;;;;;4986848;28;20050;-72
2023/08/27 04:59:10;;;;;;;16.42;10.55;;;12.90;99.90;;;;;;4961710;28;20052;-72
2023/08/27 05:01:36;;;;;;;15.02;10.77;;;12.90;99.90;;;;;;5001796;28;20064;-71
2023/08/27 05:04:02;;;;;;;15.52;10.60;;;12.90;99.90;;;;;;4983978;28;20056;-71
2023/08/27 05:06:29;;;;;;;13.90;10.25;;;12.90;99.90;;;;;;5000704;28;20046;-70
2023/08/27 05:08:55;;;;;;;19.77;10.75;;;12.90;99.90;;;;;;4978112;28;20442;-71
2023/08/27 05:11:21;;;;;;;16.05;10.45;;;12.90;99.90;;;;;;5004937;28;20052;-71
2023/08/27 05:13:47;;;;;;;14.75;10.23;;;12.90;99.90;;;;;;4981621;28;20052;-71
2023/08/27 05:16:13;;;;;;;14.82;10.80;;;12.90;99.90;;;;;;5004036;28;20060;-71
2023/08/27 05:18:39;;;;;;;14.40;10.38;;;12.90;99.90;;;;;;4949344;28;20042;-71
2023/08/27 05:21:05;;;;;;;15.77;10.57;;;12.90;99.90;;;;;;5004831;28;20447;-72
2023/08/27 05:23:31;;;;;;;17.05;10.82;;;13.00;99.90;;;;;;4977883;28;20041;-71
2023/08/27 05:25:58;;;;;;;14.63;10.55;;;13.10;99.90;;;;;;5004908;28;20046;-71
2023/08/27 05:28:24;;;;;;;18.30;9.88;;;13.20;99.90;;;;;;4974760;28;20049;-72
2023/08/27 05:30:51;;;;;;;14.50;9.80;;;13.20;99.90;;;;;;5001438;28;20065;-72
2023/08/27 05:33:17;;;;;;;12.73;8.60;;;13.50;99.90;;;;;;4972474;28;20539;-72
2023/08/27 05:35:43;;;;;;;14.52;8.75;;;13.50;99.90;;;;;;5002919;28;20058;-72
2023/08/27 05:38:09;;;;;;;13.60;8.85;;;13.50;99.90;;;;;;4947738;28;20052;-73
2023/08/27 05:40:35;;;;;;;12.77;8.20;;;13.50;99.90;;;;;;5009228;28;20061;-72
2023/08/27 05:43:01;;;;;;;13.25;8.32;;;13.50;99.90;;;;;;4954240;28;20050;-72
2023/08/27 05:45:27;;;;;;;11.88;8.00;;;13.60;99.90;;;;;;4978367;28;20061;-72
2023/08/27 05:47:54;;;;;;;14.70;8.55;;;13.60;99.90;;;;;;4956316;28;20046;-72
2023/08/27 05:50:20;;;;;;;13.32;8.15;;;13.60;99.90;;;;;;4993147;28;20049;-71
2023/08/27 05:52:46;;;;;;;11.82;7.65;;;13.60;99.90;;;;;;4962694;28;62113;-72
2023/08/27 05:55:12;;;;;;;11.48;7.55;;;13.70;99.90;;;;;;5004931;28;20042;-72
2023/08/27 05:57:38;;;;;;;12.00;7.50;;;13.70;99.90;;;;;;4968077;28;20057;-72
2023/08/27 06:00:05;;;;;;;10.82;7.50;;;13.90;99.90;;;;;;4985780;28;20065;-72
2023/08/27 06:02:31;;;;;;;11.90;7.53;;;13.80;99.90;;;;;;4965249;28;20069;-72
2023/08/27 06:04:59;;;;;;;13.45;7.53;;;14.00;99.90;;;;;;4989967;28;20049;-72
2023/08/27 06:07:25;;;;;;;12.30;7.05;;;14.00;99.90;;;;;;4969945;28;20522;-72
2023/08/27 06:09:51;;;;;;;11.50;7.40;;;14.00;99.90;;;;;;5011793;28;20057;-72
2023/08/27 06:12:17;;;;;;;11.05;6.82;;;14.00;99.90;;;;;;4965981;28;20076;-71
2023/08/27 06:14:43;;;;;;;13.07;7.47;;;14.00;99.90;;;;;;5003073;28;20038;-71
2023/08/27 06:17:09;;;;;;;12.45;7.60;;;14.00;99.90;;;;;;4969272;28;20457;-71
2023/08/27 06:19:35;;;;;;;12.32;7.55;;;14.00;99.90;;;;;;4994633;28;20058;-71
2023/08/27 06:22:02;;;;;;;12.13;7.10;;;14.00;99.90;;;;;;4964844;28;20097;-71
2023/08/27 06:24:28;;;;;;;11.70;7.03;;;14.00;99.90;;;;;;4984280;28;20064;-71
2023/08/27 06:26:54;;;;;;;16.98;8.35;;;14.00;99.90;;;;;;4968011;28;20567;-71
2023/08/27 06:29:20;;;;;;;13.30;7.65;;;14.00;99.90;;;;;;5009592;28;20414;-72
2023/08/27 06:31:46;;;;;;;13.40;7.60;;;14.00;99.90;;;;;;4997892;28;20060;-72
2023/08/27 06:34:12;;;;;;;13.70;8.07;;;14.00;99.90;;;;;;4969706;28;20054;-72
2023/08/27 06:36:39;;;;;;;14.93;8.05;;;14.00;99.90;;;;;;5002116;28;20049;-73
2023/08/27 06:39:05;;;;;;;14.85;8.18;;;14.00;99.90;;;;;;4964806;28;20105;-75
2023/08/27 06:41:31;;;;;;;15.63;7.95;;;14.00;99.90;;;;;;5001607;28;20050;-75
2023/08/27 06:43:57;;;;;;;14.15;8.25;;;14.00;99.90;;;;;;4964828;28;20034;-75
2023/08/27 06:46:23;;;;;;;14.80;7.68;;;14.10;99.90;;;;;;4999194;28;20524;-75
2023/08/27 06:48:49;;;;;;;14.85;7.75;;;14.10;99.90;;;;;;4964833;28;20045;-74
2023/08/27 06:51:15;;;;;;;14.98;8.07;;;14.10;99.90;;;;;;4984244;28;20058;-73
2023/08/27 06:53:41;;;;;;;14.60;8.10;;;14.10;99.90;;;;;;4941661;28;138380;-74
2023/08/27 06:56:07;;;;;;;13.15;7.75;;;14.20;99.90;;;;;;4985780;28;20062;-74
2023/08/27 06:58:33;;;;;;;12.85;7.38;;;14.10;99.90;;;;;;4944603;28;20053;-74
2023/08/27 07:01:04;;;;;;;12.32;6.85;;;14.20;99.90;;;;;;4984144;28;20062;-74
2023/08/27 07:03:31;;;;;;;11.20;6.72;;;14.10;99.90;;;;;;4969418;28;20050;-74
2023/08/27 07:05:57;;;;;;;12.38;6.93;;;14.20;99.90;;;;;;5008971;28;20054;-74
2023/08/27 07:08:24;;;;;;;12.75;6.97;;;14.20;99.90;;;;;;4953490;28;20162;-74
2023/08/27 07:10:50;;;;;;;14.55;6.45;;;14.30;99.90;;;;;;5005642;28;20054;-74
2023/08/27 07:13:16;;;;;;;13.25;6.43;;;14.40;99.90;;;;;;4962519;28;20054;-74
2023/08/27 07:15:42;;;;;;;11.80;6.22;;;14.40;99.90;;;;;;5001686;28;20060;-74
2023/08/27 07:18:08;;;;;;;11.98;6.50;;;14.50;99.90;;;;;;4941282;28;20042;-75
2023/08/27 07:20:34;;;;;;;14.45;6.00;;;14.60;99.90;;;;;;4992308;28;20068;-74
2023/08/27 07:23:01;;;;;;;13.35;5.20;;;14.60;99.90;;;;;;4957408;28;20053;-74
2023/08/27 07:25:27;;;;;;;11.70;5.20;;;14.60;99.90;;;;;;4994437;28;20060;-75
2023/08/27 07:27:53;;;;;;;9.93;5.00;;;14.70;99.90;;;;;;4965059;28;20167;-75
2023/08/27 07:30:19;;;;;;;10.18;5.05;;;14.60;99.90;;;;;;5005887;28;20061;-75
2023/08/27 07:32:46;;;;;;;10.27;4.60;;;14.60;99.90;;;;;;4976936;28;20113;-75
2023/08/27 07:35:12;;;;;;;9.05;4.53;;;14.60;99.90;;;;;;4988983;28;20054;-75
2023/08/27 07:37:38;;;;;;;11.00;4.32;;;14.60;99.90;;;;;;4967687;28;20125;-74
2023/08/27 07:40:09;;;;;;;11.05;4.63;;;14.60;99.90;;;;;;5003249;28;20054;-74
2023/08/27 07:42:35;;;;;;;9.67;4.63;;;14.60;99.90;;;;;;4955753;28;20042;-74
2023/08/27 07:45:02;;;;;;;12.40;4.65;;;14.60;99.90;;;;;;4976945;28;22037;-73
2023/08/27 07:47:28;;;;;;;10.23;4.53;;;14.70;99.90;;;;;;4948601;28;20824;-69
2023/08/27 07:49:54;;;;;;;9.55;4.65;;;14.70;99.90;;;;;;4987900;28;20054;-72
2023/08/27 07:52:20;;;;;;;9.93;4.63;;;15.10;99.90;;;;;;4932542;28;170889;-72
2023/08/27 07:54:46;;;;;;;9.85;4.32;;;15.70;99.90;;;;;;4966163;28;20425;-72
2023/08/27 07:57:12;;;;;;;10.50;4.00;;;16.30;99.90;;;;;;4949946;28;20092;-72
2023/08/27 07:59:38;;;;;;;8.82;3.80;;;16.50;99.90;;;;;;4981076;28;20069;-72
2023/08/27 08:02:04;;;;;;;8.45;3.80;;;16.70;99.90;;;;;;4943313;28;20034;-72
2023/08/27 08:04:31;;;;;;;10.95;3.60;;;16.90;99.90;;;;;;4971484;28;20061;-71
2023/08/27 08:06:57;;;;;;;8.23;3.33;;;17.30;99.90;;;;;;4950176;28;20542;-71
2023/08/27 08:09:23;;;;;;;9.07;3.10;;;17.60;99.90;;;;;;4979986;28;20050;-71
2023/08/27 08:11:50;;;;;;;9.27;3.30;;;17.80;99.90;;;;;;4951540;28;20400;-72
2023/08/27 08:14:16;;;;;;;9.65;3.33;;;18.10;99.90;;;;;;4963684;28;20046;-71
2023/08/27 08:16:42;;;;;;;7.18;2.85;;;18.30;99.90;;;;;;4979445;28;20061;-72
2023/08/27 08:19:08;;;;;;;8.27;2.95;;;18.50;99.90;;;;;;4937582;28;20046;-72
2023/08/27 08:21:34;;;;;;;7.60;2.72;;;18.70;99.90;;;;;;4991391;28;20057;-71
2023/08/27 08:24:00;;;;;;;8.30;2.53;;;18.80;99.90;;;;;;4960466;28;20037;-72
2023/08/27 08:26:26;;;;;;;8.82;2.80;;;18.90;99.90;;;;;;4986249;28;20050;-71
2023/08/27 08:28:52;;;;;;;8.00;2.60;;;19.20;99.90;;;;;;4981166;28;20545;-70
2023/08/27 08:31:18;;;;;;;10.77;2.67;;;19.20;99.90;;;;;;5000750;28;20058;-71
2023/08/27 08:33:45;;;;;;;7.38;2.30;;;19.10;99.90;;;;;;4964454;28;20050;-71
2023/08/27 08:36:11;;;;;;;8.88;2.70;;;19.20;99.90;;;;;;5002298;28;20141;-71
2023/08/27 08:38:37;;;;;;;8.63;2.35;;;19.60;99.90;;;;;;4963918;28;20042;-72
2023/08/27 08:41:04;;;;;;;7.15;2.38;;;19.70;99.90;;;;;;5003477;28;20061;-71
2023/08/27 08:43:38;;;;;;;7.97;2.40;;;19.90;99.90;;;;;;4965649;28;20156;-71
2023/08/27 08:46:06;;;;;;;7.38;2.30;;;19.90;99.90;;;;;;5002874;28;20051;-70
2023/08/27 08:48:40;;;;;;;8.18;2.20;;;20.20;99.90;;;;;;4981090;28;20536;-71
2023/08/27 08:51:08;;;;;;;7.43;2.30;;;20.40;99.90;;;;;;5000364;28;20046;-70
2023/08/27 08:53:41;;;;;;;8.20;2.50;;;20.50;99.90;;;;;;4932365;28;199213;-70
2023/08/27 08:56:13;;;;;;;7.10;2.13;;;20.50;99.90;;;;;;4987579;28;20046;-72
2023/08/27 08:58:46;;;;;;;8.18;2.10;;;20.80;99.90;;;;;;4956269;28;20056;-71
2023/08/27 09:01:13;;;;;;;6.32;1.88;;;20.70;99.90;;;;;;4989225;28;20062;-70
2023/08/27 09:03:41;;;;;;;6.85;2.05;;;21.10;99.90;;;;;;4918018;28;20047;-71
2023/08/27 09:06:07;;;;;;;8.48;2.00;;;21.20;99.90;;;;;;4983848;28;20058;-70
2023/08/27 09:08:36;;;;;;;6.55;1.83;;;21.10;99.90;;;;;;4952062;28;20118;-70
2023/08/27 09:11:02;;;;;;;6.80;1.77;;;21.20;99.90;;;;;;4980980;28;20062;-70
2023/08/27 09:13:29;;;;;;;10.10;1.90;;;21.30;99.90;;;;;;4956832;28;20062;-70
2023/08/27 09:15:55;;;;;;;9.60;1.90;;;21.50;99.90;;;;;;4991123;28;20521;-70
2023/08/27 09:18:21;;;;;;;6.35;1.85;;;21.70;99.90;;;;;;4944073;28;20046;-69
2023/08/27 09:20:50;;;;;;;7.15;1.80;;;21.60;99.90;;;;;;4990467;28;20054;-70
2023/08/27 09:23:16;;;;;;;7.10;1.75;;;22.00;99.90;;;;;;4933339;28;20051;-71
2023/08/27 09:25:43;;;;;;;5.50;1.60;;;22.50;99.90;;;;;;4974086;28;20050;-71
2023/08/27 09:28:10;;;;;;;6.93;1.60;;;22.70;99.90;;;;;;4941212;28;20061;-72
2023/08/27 09:30:37;;;;;;;6.53;1.70;;;22.70;99.90;;;;;;4989388;28;20077;-70
2023/08/27 09:33:03;;;;;;;5.57;1.63;;;22.90;99.90;;;;;;4949421;28;20598;-70
2023/08/27 09:35:40;;;;;;;7.68;1.90;;;23.20;99.90;;;;;;4983940;28;20058;-70
2023/08/27 09:38:10;;;;;;;6.07;1.60;;;23.80;99.90;;;;;;4951838;28;20060;-71
2023/08/27 09:40:36;;;;;;;7.27;1.60;;;23.60;99.90;;;;;;5002990;28;20173;-71
2023/08/27 09:43:07;;;;;;;7.13;1.85;;;22.80;99.90;;;;;;4962544;28;20054;-70
2023/08/27 09:45:34;;;;;;;5.68;1.58;;;23.30;99.90;;;;;;4989013;28;20119;-70
2023/08/27 09:48:01;;;;;;;6.85;1.80;;;23.40;99.70;;;;;;4945363;28;20065;-70
2023/08/27 09:50:29;;;;;;;5.72;1.58;;;23.00;99.00;;;;;;4988508;28;20431;-71
2023/08/27 09:53:11;;;;;;;6.47;1.65;;;22.50;99.90;;;;;;4952093;28;108583;-70
2023/08/27 09:55:37;;;;;;;4.40;1.38;;;23.30;99.90;;;;;;5001233;28;20049;-70
2023/08/27 09:58:04;;;;;;;6.35;1.67;;;23.50;99.90;;;;;;4937869;28;20059;-72
2023/08/27 10:00:32;;;;;;;6.93;1.77;;;23.00;99.70;;;;;;4973859;28;20431;-71
2023/08/27 10:02:58;;;;;;;5.75;1.60;;;22.90;99.90;;;;;;4943982;28;20114;-71
2023/08/27 10:05:28;;;;;;;6.68;1.80;;;22.70;99.20;;;;;;4981705;28;20054;-72
2023/08/27 10:07:59;;;;;;;10.07;2.00;;;22.90;98.80;;;;;;4966384;28;20771;-71
2023/08/27 10:10:26;;;;;;;5.78;1.77;;;23.20;99.90;;;;;;5004007;28;20416;-70
2023/08/27 10:12:54;;;;;;;7.90;2.20;;;22.80;99.30;;;;;;4969674;28;130638;-71
2023/08/27 10:15:21;;;;;;;7.47;2.05;;;23.30;98.10;;;;;;4977548;28;20050;-72
2023/08/27 10:17:49;;;;;;;8.32;2.13;;;22.90;99.90;;;;;;4949420;28;20068;-70
2023/08/27 10:20:16;;;;;;;7.55;2.17;;;22.80;99.90;;;;;;5000766;28;20503;-71
2023/08/27 10:22:44;;;;;;;6.85;2.05;;;22.80;98.90;;;;;;4950540;28;174613;-71
2023/08/27 10:25:12;;;;;;;8.02;2.25;;;22.30;99.90;;;;;;5001961;28;20049;-71
2023/08/27 10:27:39;;;;;;;6.68;2.00;;;22.90;99.90;;;;;;4964988;28;188364;-71
2023/08/27 10:30:07;;;;;;;6.40;1.80;;;23.50;98.30;;;;;;5007957;28;20057;-72
2023/08/27 10:32:33;;;;;;;7.20;1.85;;;22.90;98.20;;;;;;4959938;28;173570;-72
2023/08/27 10:35:00;;;;;;;8.43;1.70;;;23.10;99.90;;;;;;4986500;28;20058;-72
2023/08/27 10:37:28;;;;;;;6.80;1.95;;;23.80;97.80;;;;;;4958416;28;110870;-72
2023/08/27 10:39:57;;;;;;;7.30;2.13;;;24.10;99.00;;;;;;4994212;28;20391;-72
2023/08/27 10:42:32;;;;;;;8.27;2.42;;;23.50;97.80;;;;;;4961077;28;66176;-70
2023/08/27 10:45:11;;;;;;;7.18;2.00;;;24.10;98.70;;;;;;4982140;28;20053;-71
2023/08/27 10:47:38;;;;;;;7.30;1.83;;;24.50;98.00;;;;;;4957411;28;123634;-71
2023/08/27 10:50:04;;;;;;;6.25;1.80;;;24.20;97.50;;;;;;4995382;28;20076;-71
2023/08/27 10:52:48;;;;;;;5.82;1.33;;;23.50;98.40;;;;;;4948616;28;187984;-71
2023/08/27 10:55:14;;;;;;;6.57;1.60;;;22.80;96.30;;;;;;4982075;28;20061;-71
2023/08/27 10:57:40;;;;;;;6.75;1.70;;;22.00;98.70;;;;;;4961604;28;149784;-70
2023/08/27 11:00:10;;;;;;;6.38;2.08;;;21.70;98.90;;;;;;4993864;28;20051;-70
2023/08/27 11:03:15;;;;;;;8.77;2.20;;;21.70;99.20;;;;;;4940760;28;134992;-70
2023/08/27 11:05:41;;;;;;;8.05;2.17;;;21.60;98.20;;;;;;4947583;28;20047;-71
2023/08/27 11:08:16;;;;;;;6.53;2.00;;;21.60;98.70;;;;;;4910599;28;203358;-71
2023/08/27 11:10:42;;;;;;;9.02;2.53;;;21.70;99.10;;;;;;4933663;28;20043;-71
2023/08/27 11:13:41;;;;;;;8.85;2.72;;;21.80;99.60;;;;;;4903782;28;158628;-71
2023/08/27 11:16:17;;;;;;;9.15;2.53;;;21.50;99.30;;;;;;4946612;28;20481;-70
2023/08/27 11:18:50;;;;;;;7.20;2.45;;;21.80;99.50;;;;;;4911888;28;115457;-70
2023/08/27 11:21:25;;;;;;;7.57;2.58;;;22.30;99.90;;;;;;4937858;28;20055;-71
2023/08/27 11:24:13;;;;;;;11.35;2.90;;;22.10;99.10;;;;;;4928949;28;35625;-71
2023/08/27 11:26:40;;;;;;;9.43;2.95;;;21.70;99.10;;;;;;4963800;28;20047;-70
2023/08/27 11:29:11;;;;;;;9.05;2.88;;;21.80;99.90;;;;;;4919308;28;179745;-71
2023/08/27 11:31:41;;;;;;;9.27;2.90;;;22.10;99.90;;;;;;4962967;28;20790;-71
2023/08/27 11:34:10;;;;;;;7.90;3.00;;;22.50;99.90;;;;;;4935378;28;54411;-71
2023/08/27 11:36:44;;;;;;;9.27;3.20;;;22.40;99.30;;;;;;4975014;28;20060;-72
2023/08/27 11:39:12;;;;;;;11.55;3.70;;;22.00;99.50;;;;;;4928505;28;26892;-71
2023/08/27 11:41:41;;;;;;;8.65;3.38;;;21.50;99.50;;;;;;4978417;28;20065;-71
2023/08/27 11:44:10;;;;;;;8.02;2.70;;;21.00;99.90;;;;;;4939712;28;178851;-70
2023/08/27 11:46:37;;;;;;;8.63;2.90;;;20.80;99.90;;;;;;4982744;28;20046;-71
2023/08/27 11:49:05;;;;;;;8.85;3.10;;;20.60;99.90;;;;;;4948661;28;47553;-71
2023/08/27 11:51:33;;;;;;;10.10;3.53;;;20.60;99.90;;;;;;4983237;28;20565;-71
2023/08/27 11:53:59;;;;;;;10.07;3.55;;;20.40;99.90;;;;;;4901717;28;102174;-70
2023/08/27 11:56:26;;;;;;;10.90;3.17;;;20.10;99.90;;;;;;4985075;28;20062;-70
2023/08/27 11:58:55;;;;;;;8.05;3.10;;;20.20;99.90;;;;;;4943985;28;20062;-70
2023/08/27 12:01:22;;;;;;;8.88;2.97;;;20.20;99.90;;;;;;4983871;28;20058;-71
2023/08/27 12:03:49;;;;;;;9.27;3.10;;;20.50;99.90;;;;;;4935039;28;60819;-71
2023/08/27 12:06:20;;;;;;;11.40;3.30;;;20.70;99.90;;;;;;4984178;28;20073;-71
2023/08/27 12:08:51;;;;;;;7.32;2.90;;;21.30;99.50;;;;;;4938731;28;182983;-71
2023/08/27 12:11:17;;;;;;;;;;;21.20;99.00;;;;;;4984627;28;20072;-71
2023/08/27 12:13:47;;;;;;;7.80;1.90;;;20.50;99.20;;;;;;4921889;28;98583;-70
2023/08/27 12:16:16;;;;;;;6.38;1.67;;;19.80;99.80;;;;;;4979965;28;20062;-71
2023/08/27 12:18:48;;;;;;;7.18;1.95;;;19.20;99.90;;;;;;4954467;28;151692;-71
2023/08/27 12:21:14;;;;;;;10.65;1.40;;;19.00;99.90;;;;;;4999132;28;20065;-71
2023/08/27 12:23:50;;;;;;;7.05;1.30;;;18.70;99.90;;;;;;4948725;28;20053;-71
2023/08/27 12:26:16;;;;;;;5.72;1.25;;;18.50;99.90;;;;;;4986937;28;20526;-72
2023/08/27 12:28:52;;;;;;;5.63;1.10;;;18.20;99.90;;;;;;4965702;28;236578;-71
2023/08/27 12:31:23;;;;;;;5.72;1.17;;;18.20;99.90;;;;;;5004256;28;20072;-71
2023/08/27 12:33:55;;;;;;;4.70;1.10;;;18.30;99.90;;;;;;4951645;28;117707;-71
2023/08/27 12:36:23;;;;;;;7.18;1.10;;;18.50;99.90;;;;;;5001674;28;20046;-72